createdAt,value
2022-09-15T00:00:45.687Z,9.95
2022-09-15T00:03:23.998Z,10.15
2022-09-15T00:05:54.400Z,10.32
2022-09-15T00:08:24.389Z,9.81
2022-09-15T00:11:00.413Z,10.32
2022-09-15T00:13:30.099Z,10.32
2022-09-15T00:16:01.603Z,9.57
2022-09-15T00:18:35.714Z,10.17
2022-09-15T00:21:12.934Z,10.15
2022-09-15T00:23:48.597Z,10.33
2022-09-15T00:26:25.564Z,9.81
2022-09-15T00:28:58.353Z,9.62
2022-09-15T00:31:30.016Z,10.29
2022-09-15T00:34:04.217Z,10.29
2022-09-15T00:36:32.737Z,10.35
2022-09-15T00:39:01.411Z,10.39
2022-09-15T00:41:35.077Z,9.93
2022-09-15T00:44:12.704Z,9.57
2022-09-15T00:46:58.718Z,10.15
2022-09-15T00:49:43.179Z,10.13
2022-09-15T00:52:14.775Z,10.36
2022-09-15T01:01:05.771Z,10.33
2022-09-15T01:03:37.231Z,10.26
2022-09-15T01:06:19.372Z,10.46
2022-09-15T01:08:53.633Z,10.19
2022-09-15T01:11:24.494Z,10.40
2022-09-15T01:13:54.319Z,10.48
2022-09-15T01:16:46.940Z,9.97
2022-09-15T01:20:05.895Z,9.83
2022-09-15T01:22:47.239Z,10.23
2022-09-15T01:25:25.291Z,10.33
2022-09-15T01:28:19.617Z,10.53
2022-09-15T01:30:52.738Z,10.36
2022-09-15T01:33:31.773Z,10.43
2022-09-15T01:36:08.583Z,10.60
2022-09-15T01:38:49.236Z,9.92
2022-09-15T01:41:32.103Z,10.09
2022-09-15T01:44:06.593Z,9.83
2022-09-15T01:46:41.627Z,10.53
2022-09-15T01:49:18.945Z,10.12
2022-09-15T01:58:15.093Z,9.88
2022-09-15T02:00:47.384Z,10.54
2022-09-15T02:03:30.102Z,10.19
2022-09-15T02:06:06.925Z,10.51
2022-09-15T02:08:49.042Z,10.51
2022-09-15T02:11:21.933Z,10.49
2022-09-15T02:14:00.016Z,10.00
2022-09-15T02:16:34.349Z,10.43
2022-09-15T02:19:18.646Z,10.06
2022-09-15T02:21:55.598Z,10.38
2022-09-15T02:24:29.233Z,10.52
2022-09-15T02:26:58.380Z,10.01
2022-09-15T02:29:29.408Z,9.75
2022-09-15T02:32:03.768Z,10.13
2022-09-15T02:34:39.855Z,10.40
2022-09-15T02:37:08.643Z,10.54
2022-09-15T02:39:39.272Z,10.51
2022-09-15T02:42:08.580Z,10.40
2022-09-15T02:44:37.257Z,10.44
2022-09-15T02:47:05.992Z,10.22
2022-09-15T02:49:34.605Z,10.33
2022-09-15T02:52:04.788Z,10.20
2022-09-15T02:54:33.753Z,10.60
2022-09-15T02:57:02.253Z,10.64
2022-09-15T02:59:51.186Z,10.36
2022-09-15T03:02:20.871Z,10.11
2022-09-15T03:04:49.947Z,10.59
2022-09-15T03:07:22.012Z,10.36
2022-09-15T03:09:50.657Z,10.31
2022-09-15T03:12:22.421Z,10.39
2022-09-15T03:14:51.198Z,10.24
2022-09-15T03:17:20.194Z,10.38
2022-09-15T03:19:48.775Z,10.60
2022-09-15T03:22:17.373Z,10.45
2022-09-15T03:24:48.179Z,10.27
2022-09-15T03:27:16.876Z,10.62
2022-09-15T03:29:45.734Z,10.71
2022-09-15T03:32:15.252Z,10.73
2022-09-15T03:34:43.935Z,10.64
2022-09-15T03:37:13.115Z,10.51
2022-09-15T03:39:41.595Z,10.32
2022-09-15T03:42:11.625Z,10.70
2022-09-15T03:44:40.231Z,10.36
2022-09-15T03:47:08.846Z,10.18
2022-09-15T03:49:37.568Z,10.46
2022-09-15T03:52:06.186Z,10.63
2022-09-15T03:54:35.668Z,10.62
2022-09-15T03:57:04.449Z,10.43
2022-09-15T03:59:34.894Z,10.45
2022-09-15T04:02:04.363Z,10.49
2022-09-15T04:04:33.015Z,10.65
2022-09-15T04:07:02.507Z,10.70
2022-09-15T04:09:31.612Z,10.63
2022-09-15T04:12:01.170Z,10.62
2022-09-15T04:14:29.801Z,10.62
2022-09-15T04:17:01.615Z,10.47
2022-09-15T04:19:30.403Z,10.70
2022-09-15T04:21:59.013Z,10.35
2022-09-15T04:24:27.752Z,10.86
2022-09-15T04:26:56.380Z,10.79
2022-09-15T04:29:25.001Z,10.85
2022-09-15T04:31:54.618Z,10.85
2022-09-15T04:34:24.909Z,10.17
2022-09-15T04:36:53.903Z,10.36
2022-09-15T04:39:23.199Z,10.78
2022-09-15T04:41:54.979Z,10.72
2022-09-15T04:44:25.082Z,9.91
2022-09-15T04:47:13.406Z,10.64
2022-09-15T04:49:55.775Z,10.15
2022-09-15T04:52:24.850Z,10.56
2022-09-15T04:54:59.919Z,10.65
2022-09-15T04:57:28.524Z,10.45
2022-09-15T04:59:58.759Z,10.27
2022-09-15T05:02:28.820Z,10.52
2022-09-15T05:04:59.495Z,10.57
2022-09-15T05:07:32.056Z,10.31
2022-09-15T05:10:00.813Z,10.11
2022-09-15T05:12:32.341Z,9.88
2022-09-15T05:15:01.907Z,10.27
2022-09-15T05:17:34.507Z,10.44
2022-09-15T05:20:07.564Z,10.44
2022-09-15T05:22:41.507Z,10.38
2022-09-15T05:25:24.606Z,10.31
2022-09-15T05:28:08.583Z,9.76
2022-09-15T05:30:44.597Z,9.97
2022-09-15T05:33:13.313Z,10.02
2022-09-15T05:35:52.528Z,9.97
2022-09-15T05:38:21.932Z,10.22
2022-09-15T05:40:51.392Z,9.90
2022-09-15T05:43:23.401Z,10.06
2022-09-15T05:45:55.859Z,10.03
2022-09-15T05:48:24.817Z,10.22
2022-09-15T05:50:55.935Z,10.44
2022-09-15T05:53:26.594Z,10.25
2022-09-15T05:56:11.964Z,9.90
2022-09-15T05:58:41.970Z,10.41
2022-09-15T06:01:13.956Z,10.05
2022-09-15T06:03:43.027Z,10.32
2022-09-15T06:06:13.817Z,10.01
2022-09-15T06:08:45.770Z,10.45
2022-09-15T06:11:17.005Z,10.35
2022-09-15T06:13:46.618Z,10.40
2022-09-15T06:16:22.084Z,10.36
2022-09-15T06:18:52.499Z,10.23
2022-09-15T06:21:25.559Z,10.33
2022-09-15T06:23:55.878Z,10.53
2022-09-15T06:26:24.796Z,10.04
2022-09-15T06:28:59.464Z,10.48
2022-09-15T06:31:28.653Z,10.50
2022-09-15T06:34:01.268Z,10.07
2022-09-15T06:36:34.529Z,10.39
2022-09-15T06:39:03.385Z,10.03
2022-09-15T06:41:58.341Z,9.62
2022-09-15T06:44:22.467Z,10.08
2022-09-15T06:46:51.344Z,10.01
2022-09-15T06:49:22.092Z,10.24
2022-09-15T06:51:53.111Z,10.16
2022-09-15T06:54:26.348Z,10.38
2022-09-15T06:56:55.314Z,9.92
2022-09-15T06:59:31.128Z,10.38
2022-09-15T07:02:04.731Z,10.00
2022-09-15T07:04:37.539Z,10.06
2022-09-15T07:07:10.880Z,10.47
2022-09-15T07:09:41.409Z,10.46
2022-09-15T07:12:24.743Z,10.43
2022-09-15T07:14:55.437Z,10.39
2022-09-15T07:17:27.030Z,10.58
2022-09-15T07:19:59.590Z,10.50
2022-09-15T07:22:31.563Z,10.78
2022-09-15T07:25:03.989Z,10.54
2022-09-15T07:27:39.868Z,10.85
2022-09-15T07:30:10.552Z,10.85
2022-09-15T07:32:44.847Z,10.82
2022-09-15T07:35:13.611Z,11.04
2022-09-15T07:38:17.250Z,10.75
2022-09-15T07:40:46.836Z,11.24
2022-09-15T07:43:15.322Z,11.24
2022-09-15T07:45:44.868Z,11.27
2022-09-15T07:48:13.435Z,10.98
2022-09-15T07:50:42.667Z,11.11
2022-09-15T07:53:12.616Z,11.28
2022-09-15T07:55:41.427Z,11.20
2022-09-15T07:58:10.251Z,11.22
2022-09-15T08:00:39.365Z,11.43
2022-09-15T08:03:08.128Z,11.41
2022-09-15T08:05:40.265Z,10.82
2022-09-15T08:08:18.630Z,11.36
2022-09-15T08:10:47.883Z,10.99
2022-09-15T08:13:16.834Z,11.65
2022-09-15T08:15:45.689Z,11.75
2022-09-15T08:18:14.365Z,11.78
2022-09-15T08:20:43.542Z,11.62
2022-09-15T08:23:13.658Z,11.57
2022-09-15T08:25:48.492Z,11.41
2022-09-15T08:28:17.995Z,11.57
2022-09-15T08:30:46.969Z,11.66
2022-09-15T08:33:15.525Z,11.53
2022-09-15T08:35:45.725Z,11.44
2022-09-15T08:38:16.588Z,11.62
2022-09-15T08:40:46.574Z,11.75
2022-09-15T08:43:19.351Z,11.56
2022-09-15T08:45:51.383Z,11.47
2022-09-15T08:48:22.403Z,10.96
2022-09-15T08:50:52.489Z,11.21
2022-09-15T08:53:27.015Z,10.91
2022-09-15T08:55:56.789Z,10.89
2022-09-15T08:58:27.953Z,11.11
2022-09-15T09:01:02.036Z,11.19
2022-09-15T09:03:49.377Z,10.93
2022-09-15T09:06:28.702Z,10.80
2022-09-15T09:09:09.599Z,10.83
2022-09-15T09:11:48.632Z,10.45
2022-09-15T09:14:22.790Z,10.90
2022-09-15T09:17:01.293Z,10.65
2022-09-15T09:20:21.335Z,10.88
2022-09-15T09:22:51.996Z,10.71
2022-09-15T09:25:27.552Z,10.82
2022-09-15T09:27:58.383Z,10.28
2022-09-15T09:30:28.401Z,10.57
2022-09-15T09:33:10.651Z,10.62
2022-09-15T09:35:43.710Z,10.30
2022-09-15T09:38:14.963Z,10.79
2022-09-15T09:40:44.917Z,10.52
2022-09-15T09:43:13.355Z,10.47
2022-09-15T09:45:41.865Z,10.63
2022-09-15T09:48:16.574Z,10.41
2022-09-15T09:50:46.190Z,10.87
2022-09-15T09:53:27.053Z,10.61
2022-09-15T09:56:13.542Z,10.78
2022-09-15T09:58:42.039Z,10.55
2022-09-15T10:01:15.059Z,10.49
2022-09-15T10:03:45.381Z,11.00
2022-09-15T10:06:16.087Z,11.02
2022-09-15T10:08:56.319Z,11.02
2022-09-15T10:11:42.915Z,11.10
2022-09-15T10:14:21.070Z,11.06
2022-09-15T10:17:11.385Z,11.23
2022-09-15T10:19:48.905Z,11.04
2022-09-15T10:22:29.578Z,11.33
2022-09-15T10:24:58.862Z,11.30
2022-09-15T10:27:38.279Z,10.65
2022-09-15T10:30:18.959Z,11.36
2022-09-15T10:32:48.714Z,11.29
2022-09-15T10:35:19.552Z,11.05
2022-09-15T10:37:58.333Z,11.25
2022-09-15T10:40:34.438Z,11.26
2022-09-15T10:43:17.356Z,11.40
2022-09-15T10:45:49.832Z,11.35
2022-09-15T10:48:52.595Z,11.03
2022-09-15T10:51:33.159Z,11.21
2022-09-15T10:54:16.962Z,11.03
2022-09-15T10:56:48.066Z,11.11
2022-09-15T10:59:32.771Z,10.71
2022-09-15T11:02:17.384Z,10.88
2022-09-15T11:04:56.050Z,10.67
2022-09-15T11:07:30.917Z,10.99
2022-09-15T11:10:05.229Z,10.90
2022-09-15T11:12:43.786Z,10.99
2022-09-15T11:15:23.558Z,10.65
2022-09-15T11:18:02.247Z,10.60
2022-09-15T11:20:39.679Z,10.82
2022-09-15T11:23:14.791Z,10.48
2022-09-15T11:25:46.470Z,10.68
2022-09-15T11:28:20.902Z,10.48
2022-09-15T11:30:54.834Z,10.75
2022-09-15T11:33:28.132Z,10.54
2022-09-15T11:36:02.512Z,10.50
2022-09-15T11:38:48.532Z,10.21
2022-09-15T11:41:21.944Z,10.73
2022-09-15T11:44:24.724Z,10.43
2022-09-15T11:47:04.867Z,10.80
2022-09-15T11:49:45.345Z,10.41
2022-09-15T11:52:36.008Z,10.43
2022-09-15T11:55:11.449Z,10.90
2022-09-15T11:57:44.635Z,10.89
2022-09-15T12:00:17.151Z,11.06
2022-09-15T12:02:51.493Z,11.28
2022-09-15T12:05:21.128Z,11.44
2022-09-15T12:07:55.774Z,11.45
2022-09-15T12:10:25.404Z,11.64
2022-09-15T12:12:55.995Z,11.76
2022-09-15T12:15:27.687Z,11.84
2022-09-15T12:18:06.639Z,11.59
2022-09-15T12:20:55.197Z,11.75
2022-09-15T12:23:28.790Z,12.21
2022-09-15T12:26:14.533Z,11.72
2022-09-15T12:28:54.458Z,12.18
2022-09-15T12:31:32.514Z,12.19
2022-09-15T12:34:04.171Z,12.16
2022-09-15T12:36:41.606Z,12.17
2022-09-15T12:39:41.390Z,12.74
2022-09-15T12:42:24.089Z,12.75
2022-09-15T12:44:55.004Z,12.53
2022-09-15T12:50:32.503Z,12.65
2022-09-15T12:56:17.075Z,12.08
2022-09-15T12:58:51.176Z,12.64
2022-09-15T13:01:35.461Z,12.19
2022-09-15T13:04:28.335Z,12.89
2022-09-15T13:07:36.728Z,13.06
2022-09-15T13:10:33.516Z,13.07
2022-09-15T13:13:33.404Z,13.37
2022-09-15T13:16:20.001Z,13.63
2022-09-15T13:22:30.229Z,13.62
2022-09-15T13:25:03.136Z,12.97
2022-09-15T13:27:38.005Z,13.61
2022-09-15T13:30:42.579Z,13.42
2022-09-15T13:40:52.936Z,13.08
2022-09-15T13:43:50.815Z,13.63
2022-09-15T13:46:30.282Z,13.64
2022-09-15T13:49:33.518Z,13.20
2022-09-15T13:52:47.111Z,12.93
2022-09-15T13:55:24.554Z,13.48
2022-09-15T14:04:38.158Z,13.74
2022-09-15T14:07:09.970Z,13.38
2022-09-15T14:12:52.322Z,13.05
2022-09-15T14:15:26.733Z,13.58
2022-09-15T14:18:02.582Z,13.55
2022-09-15T14:20:38.018Z,13.49
2022-09-15T14:26:15.653Z,13.09
2022-09-15T14:29:01.956Z,13.31
2022-09-15T14:31:39.617Z,12.67
2022-09-15T14:34:19.885Z,12.84
2022-09-15T14:40:00.543Z,12.40
2022-09-15T14:42:43.338Z,13.03
2022-09-15T14:46:02.901Z,12.59
2022-09-15T14:48:32.227Z,12.97
2022-09-15T14:54:21.798Z,12.88
2022-09-15T15:00:00.954Z,12.88
2022-09-15T15:03:06.909Z,12.86
2022-09-15T15:08:50.729Z,12.60
2022-09-15T15:14:20.297Z,12.71
2022-09-15T15:20:03.854Z,12.00
2022-09-15T15:22:40.679Z,12.33
2022-09-15T15:34:58.160Z,11.71
2022-09-15T15:41:22.681Z,11.49
2022-09-15T15:47:22.566Z,11.57
2022-09-15T15:50:19.639Z,11.46
2022-09-15T15:53:13.279Z,11.10
2022-09-15T15:55:50.700Z,10.82
2022-09-15T16:01:15.746Z,11.02
2022-09-15T16:03:45.323Z,10.40
2022-09-15T16:06:21.502Z,10.66
2022-09-15T16:09:13.219Z,10.62
2022-09-15T16:12:30.768Z,10.09
2022-09-15T16:22:28.024Z,10.45
2022-09-15T16:25:11.841Z,10.06
2022-09-15T16:28:34.050Z,9.72
2022-09-15T16:31:36.208Z,10.14
2022-09-15T16:34:26.925Z,9.75
2022-09-15T16:40:00.075Z,9.97
2022-09-15T16:42:40.781Z,9.54
2022-09-15T16:45:38.247Z,9.29
2022-09-15T16:48:12.556Z,9.81
2022-09-15T16:54:05.564Z,9.61
2022-09-15T16:56:36.733Z,9.59
2022-09-15T16:59:08.193Z,9.54
2022-09-15T17:01:42.577Z,9.10
2022-09-15T17:04:19.461Z,9.46
2022-09-15T17:06:55.133Z,9.23
2022-09-15T17:09:27.632Z,9.19
2022-09-15T17:12:05.934Z,9.00
2022-09-15T17:14:43.477Z,8.84
2022-09-15T17:17:38.072Z,8.70
2022-09-15T17:20:09.508Z,8.95
2022-09-15T17:22:38.887Z,8.71
2022-09-15T17:28:14.338Z,8.61
2022-09-15T17:30:50.216Z,8.39
2022-09-15T17:33:26.324Z,8.68
2022-09-15T17:36:00.932Z,9.20
2022-09-15T17:38:36.267Z,9.25
2022-09-15T17:41:06.314Z,9.01
2022-09-15T17:43:38.871Z,9.29
2022-09-15T17:49:18.663Z,9.26
2022-09-15T17:51:56.590Z,9.23
2022-09-15T17:54:42.229Z,8.65
2022-09-15T17:57:15.448Z,9.19
2022-09-15T18:00:10.750Z,8.94
2022-09-15T18:02:42.357Z,8.46
2022-09-15T18:05:26.260Z,8.95
2022-09-15T18:08:02.717Z,8.89
2022-09-15T18:10:41.666Z,8.79
2022-09-15T18:13:38.221Z,9.01
2022-09-15T18:16:27.699Z,8.31
2022-09-15T18:19:08.849Z,8.80
2022-09-15T18:25:20.486Z,9.14
2022-09-15T18:27:58.861Z,9.11
2022-09-15T18:30:44.554Z,9.13
2022-09-15T18:33:35.050Z,9.09
2022-09-15T18:36:29.831Z,8.56
2022-09-15T18:39:29.859Z,8.96
2022-09-15T18:42:29.733Z,8.91
2022-09-15T18:49:23.380Z,8.87
2022-09-15T18:51:55.391Z,8.65
2022-09-15T18:54:26.519Z,8.97
2022-09-15T18:57:10.173Z,8.84
2022-09-15T18:59:39.001Z,8.93
2022-09-15T19:02:43.810Z,8.84
2022-09-15T19:05:42.064Z,8.81
2022-09-15T19:08:16.250Z,8.48
2022-09-15T19:10:48.026Z,8.83
2022-09-15T19:13:16.416Z,8.51
2022-09-15T19:15:49.253Z,8.71
2022-09-15T19:18:20.142Z,8.83
2022-09-15T19:20:50.611Z,8.30
2022-09-15T19:23:22.001Z,8.61
2022-09-15T19:25:52.799Z,8.52
2022-09-15T19:28:27.408Z,8.90
2022-09-15T19:30:55.553Z,8.89
2022-09-15T19:33:25.856Z,8.83
2022-09-15T19:36:24.263Z,8.86
2022-09-15T19:38:53.545Z,8.63
2022-09-15T19:41:28.245Z,8.67
2022-09-15T19:43:56.757Z,8.80
2022-09-15T19:46:30.950Z,8.85
2022-09-15T19:49:03.676Z,8.86
2022-09-15T19:51:36.539Z,8.88
2022-09-15T19:54:12.977Z,8.88
2022-09-15T19:56:41.516Z,8.74
2022-09-15T19:59:15.193Z,8.86
2022-09-15T20:01:48.525Z,8.40
2022-09-15T20:04:24.320Z,8.60
2022-09-15T20:06:57.399Z,8.08
2022-09-15T20:09:41.206Z,8.63
2022-09-15T20:12:09.821Z,8.79
2022-09-15T20:14:44.443Z,7.96
2022-09-15T20:17:12.900Z,8.31
2022-09-15T20:19:53.957Z,8.61
2022-09-15T20:22:27.652Z,8.55
2022-09-15T20:25:01.880Z,7.78
2022-09-15T20:30:17.785Z,8.35
2022-09-15T20:32:51.571Z,8.17
2022-09-15T20:38:12.195Z,7.60
2022-09-15T20:41:21.873Z,8.18
2022-09-15T20:43:52.987Z,8.19
2022-09-15T20:46:31.256Z,7.65
2022-09-15T20:49:08.939Z,7.86
2022-09-15T20:51:38.424Z,7.57
2022-09-15T20:54:08.404Z,8.16
2022-09-15T20:56:42.192Z,8.05
2022-09-15T20:59:20.676Z,7.84
2022-09-15T21:01:54.292Z,7.71
2022-09-15T21:05:29.656Z,7.93
2022-09-15T21:08:25.718Z,7.92
2022-09-15T21:11:01.861Z,7.92
2022-09-15T21:13:38.742Z,8.06
2022-09-15T21:16:15.377Z,7.63
2022-09-15T21:18:51.357Z,7.72
2022-09-15T21:21:26.169Z,7.48
2022-09-15T21:24:01.341Z,7.84
2022-09-15T21:26:37.043Z,7.96
2022-09-15T21:29:05.671Z,7.86
2022-09-15T21:31:36.972Z,7.77
2022-09-15T21:34:09.156Z,7.94
2022-09-15T21:36:42.653Z,7.83
2022-09-15T21:39:13.412Z,7.75
2022-09-15T21:41:44.615Z,8.08
2022-09-15T21:44:31.070Z,7.86
2022-09-15T21:47:01.278Z,7.66
2022-09-15T21:49:31.790Z,8.06
2022-09-15T21:52:03.400Z,7.61
2022-09-15T21:54:35.352Z,7.64
2022-09-15T21:57:07.927Z,8.06
2022-09-15T21:59:38.915Z,8.00
2022-09-15T22:02:12.982Z,8.08
2022-09-15T22:04:43.400Z,8.02
2022-09-15T22:07:12.292Z,8.23
2022-09-15T22:09:46.086Z,8.13
2022-09-15T22:12:18.572Z,8.25
2022-09-15T22:14:50.583Z,8.21
2022-09-15T22:17:24.187Z,8.31
2022-09-15T22:19:55.840Z,8.05
2022-09-15T22:22:25.467Z,8.05
2022-09-15T22:24:56.230Z,8.47
2022-09-15T22:27:32.080Z,8.26
2022-09-15T22:30:03.256Z,8.20
2022-09-15T22:32:35.339Z,8.23
2022-09-15T22:35:08.833Z,8.46
2022-09-15T22:37:47.954Z,8.14
2022-09-15T22:40:18.447Z,8.52
2022-09-15T22:42:49.047Z,8.51
2022-09-15T22:45:22.996Z,8.48
2022-09-15T22:47:54.551Z,8.60
2022-09-15T22:50:23.291Z,8.55
2022-09-15T22:52:57.641Z,8.18
2022-09-15T22:55:31.641Z,8.53
2022-09-15T22:58:09.718Z,8.38
2022-09-15T23:00:44.267Z,8.32
2022-09-15T23:03:17.314Z,8.60
2022-09-15T23:05:45.929Z,8.15
2022-09-15T23:08:14.776Z,8.48
2022-09-15T23:10:43.133Z,8.51
2022-09-15T23:13:13.665Z,8.50
2022-09-15T23:15:49.779Z,7.95
2022-09-15T23:18:18.347Z,8.45
2022-09-15T23:20:49.170Z,8.48
2022-09-15T23:23:17.613Z,8.51
2022-09-15T23:25:46.048Z,8.47
2022-09-15T23:28:20.445Z,8.04
2022-09-15T23:31:04.524Z,8.28
2022-09-15T23:33:35.982Z,8.05
2022-09-15T23:36:10.562Z,7.83
2022-09-15T23:38:45.675Z,8.08
2022-09-15T23:41:17.103Z,8.34
2022-09-15T23:43:49.906Z,8.22
2022-09-15T23:46:23.264Z,8.41
2022-09-15T23:48:51.680Z,8.06
2022-09-15T23:51:24.198Z,8.16
2022-09-15T23:53:58.560Z,8.02
2022-09-15T23:56:40.176Z,8.34
2022-09-15T23:59:09.975Z,8.04
